createdAt,value
2022-12-14T00:01:52.740Z,15.20
2022-12-14T00:04:20.109Z,14.67
2022-12-14T00:06:46.961Z,14.87
2022-12-14T00:09:13.943Z,14.63
2022-12-14T00:11:40.750Z,15.07
2022-12-14T00:14:07.864Z,14.20
2022-12-14T00:16:35.238Z,14.13
2022-12-14T00:19:04.423Z,15.03
2022-12-14T00:21:31.497Z,13.17
2022-12-14T00:23:59.892Z,14.20
2022-12-14T00:26:31.736Z,13.50
2022-12-14T00:29:00.548Z,13.13
2022-12-14T00:31:27.974Z,12.90
2022-12-14T00:33:55.544Z,12.70
2022-12-14T00:36:40.978Z,12.77
2022-12-14T00:39:07.807Z,12.80
2022-12-14T00:41:34.746Z,12.70
2022-12-14T00:44:01.539Z,12.63
2022-12-14T00:46:28.430Z,11.67
2022-12-14T00:48:55.711Z,11.93
2022-12-14T00:51:41.245Z,11.77
2022-12-14T00:54:08.132Z,12.23
2022-12-14T00:56:35.308Z,12.17
2022-12-14T00:59:02.536Z,11.87
2022-12-14T01:01:30.645Z,12.10
2022-12-14T01:04:16.680Z,12.03
2022-12-14T01:06:44.800Z,11.83
2022-12-14T01:09:11.846Z,11.77
2022-12-14T01:11:39.095Z,12.57
2022-12-14T01:14:06.908Z,11.53
2022-12-14T01:16:34.118Z,11.63
2022-12-14T01:19:02.088Z,11.20
2022-12-14T01:21:29.543Z,11.20
2022-12-14T01:23:59.297Z,11.20
2022-12-14T01:26:28.260Z,11.83
2022-12-14T01:28:57.384Z,11.17
2022-12-14T01:31:31.316Z,11.33
2022-12-14T01:33:58.680Z,11.70
2022-12-14T01:36:31.213Z,11.93
2022-12-14T01:39:09.369Z,11.30
2022-12-14T01:41:42.172Z,11.80
2022-12-14T01:44:08.910Z,11.27
2022-12-14T01:46:45.245Z,10.67
2022-12-14T01:49:20.857Z,11.40
2022-12-14T01:52:00.831Z,11.30
2022-12-14T01:54:29.546Z,10.77
2022-12-14T01:56:56.976Z,11.47
2022-12-14T01:59:29.311Z,11.10
2022-12-14T02:01:57.989Z,10.87
2022-12-14T02:04:25.780Z,10.90
2022-12-14T02:06:57.926Z,11.23
2022-12-14T02:09:32.146Z,11.17
2022-12-14T02:12:14.898Z,10.70
2022-12-14T02:14:42.104Z,11.33
2022-12-14T02:17:10.858Z,12.10
2022-12-14T02:19:38.103Z,10.83
2022-12-14T02:22:26.552Z,11.23
2022-12-14T02:25:16.470Z,11.30
2022-12-14T02:27:46.357Z,11.57
2022-12-14T02:30:20.328Z,10.70
2022-12-14T02:33:20.337Z,11.20
2022-12-14T02:36:02.292Z,11.17
2022-12-14T02:39:03.677Z,11.13
2022-12-14T02:41:42.155Z,11.53
2022-12-14T02:44:54.187Z,11.67
2022-12-14T02:47:58.990Z,11.63
2022-12-14T02:50:53.939Z,10.53
2022-12-14T02:53:41.767Z,11.63
2022-12-14T02:56:12.250Z,11.23
2022-12-14T02:58:48.834Z,11.10
2022-12-14T03:01:20.396Z,11.37
2022-12-14T03:03:47.287Z,11.17
2022-12-14T03:06:27.024Z,11.40
2022-12-14T03:09:02.335Z,11.90
2022-12-14T03:11:48.287Z,12.43
2022-12-14T03:14:27.408Z,11.03
2022-12-14T03:17:02.262Z,11.37
2022-12-14T03:19:51.047Z,11.27
2022-12-14T03:22:23.564Z,11.47
2022-12-14T03:24:55.533Z,11.77
2022-12-14T03:27:31.352Z,12.03
2022-12-14T03:30:02.849Z,12.13
2022-12-14T03:32:32.152Z,12.30
2022-12-14T03:35:13.764Z,11.47
2022-12-14T03:37:55.894Z,10.67
2022-12-14T03:40:44.910Z,10.73
2022-12-14T03:43:38.128Z,11.27
2022-12-14T03:46:14.757Z,11.40
2022-12-14T03:48:49.256Z,12.00
2022-12-14T03:51:34.945Z,11.57
2022-12-14T03:54:21.457Z,11.33
2022-12-14T03:56:55.416Z,11.07
2022-12-14T03:59:46.103Z,11.63
2022-12-14T04:02:24.398Z,11.80
2022-12-14T04:05:13.384Z,11.87
2022-12-14T04:08:01.171Z,11.97
2022-12-14T04:10:53.759Z,11.07
2022-12-14T04:13:44.531Z,11.07
2022-12-14T04:16:40.861Z,11.43
2022-12-14T04:19:20.882Z,11.53
2022-12-14T04:22:02.146Z,12.13
2022-12-14T04:25:00.139Z,10.97
2022-12-14T04:27:36.113Z,11.47
2022-12-14T04:30:05.443Z,11.53
2022-12-14T04:32:40.860Z,11.33
2022-12-14T04:35:13.729Z,11.57
2022-12-14T04:37:43.833Z,11.03
2022-12-14T04:40:15.250Z,11.87
2022-12-14T04:42:52.731Z,12.20
2022-12-14T04:45:28.890Z,11.20
2022-12-14T04:48:16.947Z,12.17
2022-12-14T04:50:47.481Z,11.80
2022-12-14T04:53:18.742Z,11.73
2022-12-14T04:56:06.237Z,11.93
2022-12-14T04:58:34.813Z,11.63
2022-12-14T05:01:04.967Z,11.57
2022-12-14T05:03:35.925Z,11.67
2022-12-14T05:06:24.138Z,11.90
2022-12-14T05:09:29.432Z,10.50
2022-12-14T05:12:08.715Z,10.00
2022-12-14T05:14:46.738Z,10.10
2022-12-14T05:17:14.773Z,10.80
2022-12-14T05:19:49.532Z,10.67
2022-12-14T05:22:17.461Z,10.90
2022-12-14T05:24:44.250Z,10.77
2022-12-14T05:27:11.106Z,11.53
2022-12-14T05:29:37.898Z,11.00
2022-12-14T05:32:04.984Z,11.23
2022-12-14T05:34:31.931Z,11.50
2022-12-14T05:36:58.761Z,10.93
2022-12-14T05:39:25.606Z,11.60
2022-12-14T05:41:53.411Z,11.93
2022-12-14T05:44:20.536Z,11.70
2022-12-14T05:46:47.365Z,11.87
2022-12-14T05:49:14.290Z,10.90
2022-12-14T05:51:41.053Z,11.53
2022-12-14T05:54:07.902Z,12.13
2022-12-14T05:56:34.741Z,11.03
2022-12-14T05:59:02.575Z,11.40
2022-12-14T06:01:29.448Z,10.67
2022-12-14T06:03:56.320Z,11.27
2022-12-14T06:06:23.187Z,10.43
2022-12-14T06:08:50.394Z,11.47
2022-12-14T06:11:19.565Z,11.07
2022-12-14T06:13:46.841Z,10.50
2022-12-14T06:16:19.970Z,11.37
2022-12-14T06:18:52.511Z,10.30
2022-12-14T06:21:21.957Z,10.33
2022-12-14T06:23:48.818Z,11.17
2022-12-14T06:26:16.331Z,11.00
2022-12-14T06:28:43.681Z,10.77
2022-12-14T06:31:22.500Z,12.47
2022-12-14T06:33:50.117Z,11.60
2022-12-14T06:36:23.961Z,10.47
2022-12-14T06:38:52.021Z,10.80
2022-12-14T06:41:20.175Z,11.43
2022-12-14T06:43:49.233Z,12.17
2022-12-14T06:46:19.347Z,11.03
2022-12-14T06:48:50.672Z,11.47
2022-12-14T06:51:17.697Z,11.43
2022-12-14T06:53:44.528Z,11.97
2022-12-14T06:56:15.370Z,11.23
2022-12-14T06:58:42.530Z,10.87
2022-12-14T07:01:13.190Z,11.47
2022-12-14T07:03:43.265Z,11.40
2022-12-14T07:06:10.418Z,10.70
2022-12-14T07:08:39.155Z,10.70
2022-12-14T07:11:08.517Z,10.83
2022-12-14T07:13:36.536Z,10.90
2022-12-14T07:16:05.245Z,11.00
2022-12-14T07:18:33.347Z,10.30
2022-12-14T07:21:06.874Z,11.27
2022-12-14T07:23:35.760Z,11.00
2022-12-14T07:26:17.828Z,10.60
2022-12-14T07:28:45.977Z,10.53
2022-12-14T07:31:18.741Z,11.60
2022-12-14T07:33:45.926Z,11.43
2022-12-14T07:36:15.852Z,11.57
2022-12-14T07:38:44.183Z,11.20
2022-12-14T07:41:32.360Z,11.57
2022-12-14T07:44:01.025Z,11.77
2022-12-14T07:46:30.014Z,10.27
2022-12-14T07:48:58.440Z,11.77
2022-12-14T07:51:34.081Z,11.00
2022-12-14T07:54:01.952Z,9.90
2022-12-14T07:56:41.169Z,9.57
2022-12-14T07:59:15.145Z,9.47
2022-12-14T08:01:43.534Z,10.40
2022-12-14T08:04:13.640Z,10.13
2022-12-14T08:06:40.979Z,11.17
2022-12-14T08:09:09.966Z,11.60
2022-12-14T08:11:37.429Z,11.50
2022-12-14T08:14:08.392Z,10.60
2022-12-14T08:16:35.609Z,11.00
2022-12-14T08:19:02.781Z,11.57
2022-12-14T08:21:30.095Z,10.80
2022-12-14T08:23:57.664Z,11.00
2022-12-14T08:26:33.326Z,11.40
2022-12-14T08:29:02.994Z,12.37
2022-12-14T08:31:30.904Z,11.13
2022-12-14T08:34:01.985Z,10.17
2022-12-14T08:36:31.039Z,10.77
2022-12-14T08:38:59.663Z,11.17
2022-12-14T08:41:27.588Z,9.00
2022-12-14T08:44:01.917Z,9.83
2022-12-14T08:46:31.785Z,11.43
2022-12-14T08:48:59.334Z,10.20
2022-12-14T08:51:27.718Z,9.93
2022-12-14T08:53:56.063Z,10.10
2022-12-14T08:56:28.089Z,12.10
2022-12-14T08:58:55.846Z,11.40
2022-12-14T09:01:32.692Z,11.83
2022-12-14T09:04:05.473Z,11.17
2022-12-14T09:06:35.228Z,11.53
2022-12-14T09:09:02.094Z,11.13
2022-12-14T09:11:29.213Z,12.23
2022-12-14T09:13:56.565Z,11.60
2022-12-14T09:16:26.269Z,11.13
2022-12-14T09:18:54.362Z,10.73
2022-12-14T09:21:21.933Z,11.53
2022-12-14T09:23:52.613Z,11.80
2022-12-14T09:26:23.950Z,11.10
2022-12-14T09:28:53.714Z,12.23
2022-12-14T09:31:23.657Z,12.37
2022-12-14T09:33:51.000Z,10.90
2022-12-14T09:36:20.404Z,10.90
2022-12-14T09:38:52.004Z,11.43
2022-12-14T09:41:25.215Z,11.37
2022-12-14T09:44:03.958Z,11.70
2022-12-14T09:47:28.503Z,10.53
2022-12-14T09:49:58.169Z,11.43
2022-12-14T09:52:43.542Z,12.07
2022-12-14T09:55:26.217Z,12.03
2022-12-14T09:58:22.629Z,11.50
2022-12-14T10:00:59.165Z,10.83
2022-12-14T10:03:26.962Z,9.93
2022-12-14T10:06:12.442Z,11.10
2022-12-14T10:09:06.278Z,11.53
2022-12-14T10:11:52.288Z,12.33
2022-12-14T10:14:44.051Z,10.73
2022-12-14T10:17:31.830Z,12.20
2022-12-14T10:20:26.632Z,12.37
2022-12-14T10:22:54.370Z,12.67
2022-12-14T10:25:27.779Z,12.90
2022-12-14T10:28:11.424Z,11.70
2022-12-14T10:30:41.924Z,12.20
2022-12-14T10:33:29.599Z,10.83
2022-12-14T10:36:14.218Z,12.50
2022-12-14T10:39:40.081Z,12.23
2022-12-14T10:42:12.920Z,11.43
2022-12-14T10:45:38.945Z,11.47
2022-12-14T10:48:34.383Z,12.27
2022-12-14T10:51:19.914Z,10.57
2022-12-14T10:53:53.028Z,12.20
2022-12-14T10:56:25.829Z,11.93
2022-12-14T10:59:20.698Z,12.90
2022-12-14T11:02:07.328Z,12.30
2022-12-14T11:04:58.303Z,12.13
2022-12-14T11:07:34.273Z,12.37
2022-12-14T11:10:25.404Z,12.97
2022-12-14T11:13:13.500Z,12.47
2022-12-14T11:15:45.611Z,11.97
2022-12-14T11:18:12.606Z,11.93
2022-12-14T11:20:56.301Z,11.47
2022-12-14T11:23:42.920Z,12.40
2022-12-14T11:26:26.036Z,12.13
2022-12-14T11:28:55.932Z,13.33
2022-12-14T11:31:53.837Z,12.40
2022-12-14T11:34:40.593Z,13.57
2022-12-14T11:37:26.223Z,11.60
2022-12-14T11:39:59.149Z,13.43
2022-12-14T11:42:26.748Z,12.97
2022-12-14T11:44:54.206Z,13.80
2022-12-14T11:47:29.155Z,9.17
2022-12-14T11:49:57.942Z,12.07
2022-12-14T11:52:39.762Z,14.00
2022-12-14T11:55:26.826Z,14.97
2022-12-14T11:57:55.256Z,12.43
2022-12-14T12:00:51.857Z,14.47
2022-12-14T12:03:31.220Z,14.23
2022-12-14T12:06:11.177Z,12.63
2022-12-14T12:08:40.385Z,13.80
2022-12-14T12:11:20.897Z,14.70
2022-12-14T12:13:52.727Z,13.60
2022-12-14T12:16:26.930Z,14.90
2022-12-14T12:19:12.463Z,12.07
2022-12-14T12:21:44.997Z,14.47
2022-12-14T12:24:34.452Z,13.97
2022-12-14T12:27:03.361Z,13.17
2022-12-14T12:29:50.498Z,12.43
2022-12-14T12:32:26.830Z,15.53
2022-12-14T12:35:11.464Z,13.23
2022-12-14T12:37:53.052Z,13.20
2022-12-14T12:40:37.917Z,13.93
2022-12-14T12:43:29.916Z,13.87
2022-12-14T12:46:02.133Z,14.43
2022-12-14T12:48:46.823Z,14.33
2022-12-14T12:51:25.102Z,14.10
2022-12-14T12:54:11.053Z,15.10
2022-12-14T12:56:56.448Z,14.90
2022-12-14T12:59:27.272Z,15.67
2022-12-14T13:01:58.688Z,15.20
2022-12-14T13:04:36.173Z,14.00
2022-12-14T13:07:46.791Z,14.97
2022-12-14T13:10:24.009Z,15.40
2022-12-14T13:12:58.281Z,15.33
2022-12-14T13:15:46.648Z,15.37
2022-12-14T13:18:57.703Z,15.10
2022-12-14T13:21:44.016Z,16.03
2022-12-14T13:24:21.922Z,16.30
2022-12-14T13:27:12.282Z,15.53
2022-12-14T13:30:29.158Z,17.07
2022-12-14T13:33:14.973Z,16.27
2022-12-14T13:35:54.895Z,16.10
2022-12-14T13:38:32.828Z,15.93
2022-12-14T13:41:09.627Z,16.07
2022-12-14T13:43:51.516Z,16.20
2022-12-14T13:46:26.815Z,15.93
2022-12-14T13:48:58.865Z,16.80
2022-12-14T13:51:38.155Z,16.10
2022-12-14T13:54:18.137Z,15.77
2022-12-14T13:56:45.645Z,15.17
2022-12-14T13:59:40.900Z,14.93
2022-12-14T14:02:27.942Z,16.63
2022-12-14T14:05:18.677Z,17.70
2022-12-14T14:07:51.816Z,17.40
2022-12-14T14:10:37.780Z,14.47
2022-12-14T14:13:29.666Z,16.80
2022-12-14T14:16:27.637Z,17.07
2022-12-14T14:19:16.500Z,16.47
2022-12-14T14:22:06.294Z,16.57
2022-12-14T14:24:50.592Z,15.57
2022-12-14T14:27:23.639Z,16.93
2022-12-14T14:29:51.923Z,17.03
2022-12-14T14:32:38.366Z,17.07
2022-12-14T14:35:23.185Z,16.90
2022-12-14T14:38:22.481Z,16.20
2022-12-14T14:43:49.832Z,16.33
2022-12-14T14:46:22.441Z,16.43
2022-12-14T14:48:54.575Z,16.40
2022-12-14T14:51:26.709Z,16.27
2022-12-14T14:54:56.115Z,16.50
2022-12-14T14:57:53.830Z,16.63
2022-12-14T15:00:20.752Z,17.27
2022-12-14T15:02:51.848Z,16.90
2022-12-14T15:05:42.099Z,15.03
2022-12-14T15:08:18.272Z,16.37
2022-12-14T15:10:46.625Z,17.37
2022-12-14T15:13:42.908Z,16.60
2022-12-14T15:16:22.514Z,16.13
2022-12-14T15:18:49.440Z,16.73
2022-12-14T15:21:18.284Z,17.50
2022-12-14T15:23:49.921Z,16.73
2022-12-14T15:26:26.627Z,16.93
2022-12-14T15:28:58.006Z,18.43
2022-12-14T15:31:41.876Z,17.40
2022-12-14T15:34:16.075Z,17.07
2022-12-14T15:36:43.895Z,17.60
2022-12-14T15:39:27.942Z,17.73
2022-12-14T15:42:09.108Z,17.20
2022-12-14T15:44:36.067Z,19.43
2022-12-14T15:47:02.979Z,17.27
2022-12-14T15:49:29.792Z,18.63
2022-12-14T15:51:58.416Z,19.10
2022-12-14T15:54:26.214Z,18.20
2022-12-14T15:56:58.596Z,19.03
2022-12-14T15:59:30.831Z,17.83
2022-12-14T16:02:15.074Z,19.17
2022-12-14T16:04:43.726Z,19.80
2022-12-14T16:07:19.472Z,19.20
2022-12-14T16:09:51.296Z,18.80
2022-12-14T16:12:24.424Z,19.83
2022-12-14T16:14:58.743Z,19.80
2022-12-14T16:17:36.475Z,20.77
2022-12-14T16:20:31.850Z,20.50
2022-12-14T16:23:06.544Z,19.80
2022-12-14T16:25:37.412Z,19.90
2022-12-14T16:28:28.187Z,18.60
2022-12-14T16:31:13.658Z,21.57
2022-12-14T16:33:42.776Z,19.70
2022-12-14T16:36:24.338Z,19.67
2022-12-14T16:39:20.414Z,21.20
2022-12-14T16:41:57.085Z,19.83
2022-12-14T16:44:30.330Z,20.33
2022-12-14T16:47:03.297Z,20.67
2022-12-14T16:49:39.805Z,19.43
2022-12-14T16:52:09.723Z,20.43
2022-12-14T16:54:38.705Z,20.40
2022-12-14T16:57:17.598Z,20.73
2022-12-14T16:59:47.861Z,21.13
2022-12-14T17:02:39.933Z,27.27
2022-12-14T17:05:17.757Z,24.77
2022-12-14T17:07:44.774Z,20.37
2022-12-14T17:10:21.127Z,19.93
2022-12-14T17:12:49.209Z,20.13
2022-12-14T17:15:23.814Z,20.43
2022-12-14T17:17:53.287Z,19.80
2022-12-14T17:20:33.059Z,20.37
2022-12-14T17:23:02.015Z,20.67
2022-12-14T17:25:31.768Z,21.33
2022-12-14T17:27:59.787Z,20.33
2022-12-14T17:30:26.766Z,20.37
2022-12-14T17:32:54.690Z,21.40
2022-12-14T17:35:26.785Z,22.20
2022-12-14T17:37:53.634Z,21.77
2022-12-14T17:40:20.598Z,20.03
2022-12-14T17:42:57.185Z,22.37
2022-12-14T17:45:26.607Z,21.77
2022-12-14T17:47:54.568Z,22.30
2022-12-14T17:50:22.577Z,21.53
2022-12-14T17:52:50.407Z,21.33
2022-12-14T17:55:18.913Z,22.57
2022-12-14T17:57:47.007Z,21.37
2022-12-14T18:00:47.786Z,21.73
2022-12-14T18:03:16.594Z,23.10
2022-12-14T18:05:48.590Z,22.30
2022-12-14T18:08:20.069Z,22.77
2022-12-14T18:10:48.702Z,22.67
2022-12-14T18:13:15.578Z,22.90
2022-12-14T18:15:49.921Z,23.37
2022-12-14T18:18:19.236Z,22.27
2022-12-14T18:20:51.490Z,24.53
2022-12-14T18:23:18.846Z,23.20
2022-12-14T18:25:49.090Z,22.63
2022-12-14T18:28:16.523Z,22.73
2022-12-14T18:30:50.922Z,24.10
2022-12-14T18:33:20.712Z,23.33
2022-12-14T18:35:49.022Z,23.03
2022-12-14T18:38:16.601Z,23.13
2022-12-14T18:40:47.741Z,21.87
2022-12-14T18:43:20.385Z,23.13
2022-12-14T18:45:47.377Z,23.90
2022-12-14T18:48:14.251Z,24.17
2022-12-14T18:50:43.135Z,23.93
2022-12-14T18:53:19.263Z,22.47
2022-12-14T18:55:46.915Z,23.20
2022-12-14T18:58:20.124Z,22.23
2022-12-14T19:00:48.459Z,24.50
2022-12-14T19:03:15.510Z,23.60
2022-12-14T19:05:43.044Z,23.47
2022-12-14T19:08:10.913Z,22.73
2022-12-14T19:10:42.789Z,23.63
2022-12-14T19:13:21.793Z,23.67
2022-12-14T19:15:52.751Z,23.97
2022-12-14T19:18:19.674Z,23.57
2022-12-14T19:20:49.389Z,22.80
2022-12-14T19:23:18.728Z,23.57
2022-12-14T19:25:46.854Z,23.40
2022-12-14T19:28:32.066Z,22.97
2022-12-14T19:31:00.445Z,23.43
2022-12-14T19:33:28.408Z,24.20
2022-12-14T19:35:55.853Z,23.07
2022-12-14T19:38:22.741Z,24.13
2022-12-14T19:41:07.648Z,24.73
2022-12-14T19:43:35.414Z,23.53
2022-12-14T19:46:11.542Z,22.90
2022-12-14T19:48:38.904Z,24.60
2022-12-14T19:51:07.777Z,23.93
2022-12-14T19:53:35.943Z,24.30
2022-12-14T19:56:03.643Z,23.80
2022-12-14T19:58:30.621Z,23.80
2022-12-14T20:00:57.950Z,24.67
2022-12-14T20:03:25.374Z,24.23
2022-12-14T20:06:00.772Z,24.83
2022-12-14T20:08:29.195Z,25.00
2022-12-14T20:10:56.893Z,25.40
2022-12-14T20:13:26.054Z,25.40
2022-12-14T20:15:58.127Z,24.20
2022-12-14T20:18:26.542Z,24.87
2022-12-14T20:20:53.493Z,24.63
2022-12-14T20:23:21.958Z,25.07
2022-12-14T20:25:49.456Z,25.43
2022-12-14T20:28:16.343Z,24.87
2022-12-14T20:30:47.930Z,25.77
2022-12-14T20:33:14.832Z,25.00
2022-12-14T20:35:41.696Z,24.50
2022-12-14T20:38:08.597Z,24.43
2022-12-14T20:40:38.831Z,25.20
2022-12-14T20:43:07.325Z,24.43
2022-12-14T20:45:42.351Z,23.73
2022-12-14T20:48:09.725Z,25.33
2022-12-14T20:50:39.558Z,25.17
2022-12-14T20:53:06.979Z,26.50
2022-12-14T20:55:35.090Z,25.37
2022-12-14T20:58:01.949Z,25.83
2022-12-14T21:00:29.130Z,25.53
2022-12-14T21:02:56.205Z,35.93
2022-12-14T21:05:23.254Z,26.30
2022-12-14T21:07:50.252Z,27.97
2022-12-14T21:10:35.794Z,26.13
2022-12-14T21:13:07.372Z,27.20
2022-12-14T21:15:35.499Z,27.33
2022-12-14T21:18:02.962Z,32.90
2022-12-14T21:20:30.052Z,30.20
2022-12-14T21:22:57.446Z,29.17
2022-12-14T21:25:25.122Z,28.43
2022-12-14T21:27:52.029Z,30.67
2022-12-14T21:30:19.279Z,28.87
2022-12-14T21:32:46.369Z,29.10
2022-12-14T21:35:17.403Z,29.40
2022-12-14T21:37:44.867Z,29.60
2022-12-14T21:40:32.082Z,28.07
2022-12-14T21:42:58.873Z,27.03
2022-12-14T21:45:25.932Z,27.30
2022-12-14T21:47:52.930Z,26.33
2022-12-14T21:50:38.392Z,27.83
2022-12-14T21:53:05.527Z,27.20
2022-12-14T21:55:32.397Z,25.37
2022-12-14T21:58:17.353Z,27.63
2022-12-14T22:00:45.115Z,26.93
2022-12-14T22:03:12.083Z,26.97
2022-12-14T22:05:39.630Z,26.57
2022-12-14T22:08:06.503Z,26.00
2022-12-14T22:10:33.546Z,27.40
2022-12-14T22:13:00.382Z,25.87
2022-12-14T22:15:27.239Z,26.43
2022-12-14T22:17:54.110Z,27.27
2022-12-14T22:20:20.995Z,27.67
2022-12-14T22:22:47.966Z,27.23
2022-12-14T22:25:15.482Z,28.37
2022-12-14T22:27:42.309Z,26.47
2022-12-14T22:30:09.725Z,27.63
2022-12-14T22:32:36.572Z,27.93
2022-12-14T22:35:03.903Z,27.13
2022-12-14T22:37:30.918Z,26.57
2022-12-14T22:39:57.720Z,27.33
2022-12-14T22:42:24.487Z,29.37
2022-12-14T22:44:51.372Z,27.67
2022-12-14T22:47:18.581Z,26.73
2022-12-14T22:49:45.552Z,28.13
2022-12-14T22:52:12.365Z,26.83
2022-12-14T22:54:39.971Z,27.27
2022-12-14T22:57:15.153Z,29.33
2022-12-14T23:00:07.657Z,29.53
2022-12-14T23:02:35.054Z,29.37
2022-12-14T23:05:02.178Z,30.50
2022-12-14T23:07:28.976Z,31.83
2022-12-14T23:10:14.292Z,29.77
2022-12-14T23:13:00.050Z,31.20
2022-12-14T23:15:45.803Z,29.10
2022-12-14T23:18:31.651Z,31.03
2022-12-14T23:21:17.539Z,29.83
2022-12-14T23:24:04.450Z,28.40
2022-12-14T23:26:49.908Z,29.70
2022-12-14T23:29:35.402Z,30.20
2022-12-14T23:32:20.911Z,29.33
2022-12-14T23:35:06.600Z,30.77
2022-12-14T23:37:52.584Z,29.33
2022-12-14T23:40:38.134Z,28.93
2022-12-14T23:43:35.587Z,29.07
2022-12-14T23:46:22.521Z,30.50
2022-12-14T23:49:12.040Z,30.20
2022-12-14T23:52:01.189Z,29.40
2022-12-14T23:54:46.476Z,29.53
2022-12-14T23:57:32.050Z,28.83
